createdAt,value
2022-10-23T00:00:03.255Z,1008.3
2022-10-23T00:15:02.661Z,1008.3
2022-10-23T00:30:02.978Z,1008.2
2022-10-23T00:45:02.616Z,1008.2
2022-10-23T01:00:02.885Z,1008.2
2022-10-23T01:15:02.308Z,1008.2
2022-10-23T01:30:02.760Z,1008.3
2022-10-23T01:45:03.217Z,1008.3
2022-10-23T02:00:02.655Z,1008.0
2022-10-23T02:15:03.075Z,1007.8
2022-10-23T02:30:02.679Z,1007.8
2022-10-23T02:45:02.973Z,1007.7
2022-10-23T03:00:02.389Z,1007.3
2022-10-23T03:15:02.827Z,1007.2
2022-10-23T03:30:02.280Z,1007.3
2022-10-23T03:45:02.755Z,1007.3
2022-10-23T04:00:03.166Z,1007.2
2022-10-23T04:15:02.725Z,1007.0
2022-10-23T04:45:02.709Z,1006.9
2022-10-23T05:00:02.964Z,1007.0
2022-10-23T05:15:02.361Z,1006.7
2022-10-23T05:30:02.854Z,1006.5
2022-10-23T05:45:02.264Z,1006.4
2022-10-23T06:00:02.731Z,1006.3
2022-10-23T06:15:03.148Z,1006.4
2022-10-23T06:30:02.716Z,1006.0
2022-10-23T06:45:06.283Z,1006.1
2022-10-23T07:00:02.683Z,1006.1
2022-10-23T07:15:02.925Z,1006.2
2022-10-23T07:30:02.344Z,1006.1
2022-10-23T07:45:02.817Z,1006.0
2022-10-23T08:00:02.252Z,1005.7
2022-10-23T08:15:02.768Z,1005.7
2022-10-23T08:30:03.139Z,1005.6
2022-10-23T08:45:02.742Z,1005.7
2022-10-23T09:00:03.026Z,1005.6
2022-10-23T09:15:02.467Z,1005.4
2022-10-23T09:30:02.921Z,1005.2
2022-10-23T09:45:02.382Z,1005.0
2022-10-23T10:00:02.783Z,1004.9
2022-10-23T10:15:03.185Z,1004.8
2022-10-23T10:30:02.794Z,1004.7
2022-10-23T10:45:03.078Z,1004.6
2022-10-23T11:00:02.499Z,1004.1
2022-10-23T11:15:02.942Z,1003.9
2022-10-23T11:30:02.391Z,1003.6
2022-10-23T11:45:02.854Z,1003.4
2022-10-23T12:00:02.272Z,1003.2
2022-10-23T12:15:02.809Z,1002.8
2022-10-23T12:30:02.138Z,1002.5
2022-10-23T12:45:02.813Z,1002.0
2022-10-23T13:00:03.068Z,1002.0
2022-10-23T13:15:02.436Z,1001.9
2022-10-23T13:30:04.967Z,1001.7
2022-10-23T14:00:02.849Z,1000.9
2022-10-23T14:15:02.218Z,1000.8
2022-10-23T14:30:02.804Z,1000.7
2022-10-23T14:45:03.121Z,1000.4
2022-10-23T15:00:02.559Z,1000.2
2022-10-23T15:15:03.005Z,1000.2
2022-10-23T15:30:02.471Z,1000.0
2022-10-23T15:45:02.878Z,999.7
2022-10-23T16:00:02.316Z,999.6
2022-10-23T16:15:02.822Z,999.4
2022-10-23T16:30:02.203Z,999.4
2022-10-23T16:45:02.858Z,999.7
2022-10-23T17:00:02.073Z,999.6
2022-10-23T17:15:02.529Z,999.6
2022-10-23T17:30:02.941Z,999.7
2022-10-23T17:45:02.397Z,1000.2
2022-10-23T18:00:02.880Z,1000.7
2022-10-23T18:15:02.293Z,1001.0
2022-10-23T18:30:02.875Z,1000.8
2022-10-23T18:45:02.206Z,998.4
2022-10-23T19:00:02.826Z,999.1
2022-10-23T19:15:03.048Z,999.0
2022-10-23T19:30:02.521Z,999.0
2022-10-23T19:45:02.955Z,999.4
2022-10-23T20:00:02.422Z,999.2
2022-10-23T20:15:02.898Z,999.0
2022-10-23T20:30:02.249Z,999.1
2022-10-23T20:45:02.912Z,999.1
2022-10-23T21:00:02.175Z,999.0
2022-10-23T21:15:02.608Z,999.2
2022-10-23T21:30:03.053Z,999.3
2022-10-23T21:45:02.481Z,999.8
2022-10-23T22:00:02.929Z,999.7
2022-10-23T22:15:02.357Z,999.6
2022-10-23T22:30:02.932Z,999.5
2022-10-23T22:45:02.218Z,999.6
2022-10-23T23:00:02.641Z,999.5
2022-10-23T23:15:03.128Z,999.8
2022-10-23T23:30:02.568Z,999.8
2022-10-23T23:45:13.893Z,999.9
